Time;durP1;ratioP1;P1;durP2;ratioP2;P2;SDS_P1;SDS_P2;PMS_P1;PMS_P2;Temp;Humidity;BMP_temperature;BMP_pressure;BME280_temperature;BME280_humidity;BME280_pressure;Samples;Min_cycle;Max_cycle;Signal;HPM_P1;HPM_P2
2023/01/30 00:02:22;;;;;;;25.05;11.95;;;;;;;;;;4992630;28;20036;-70
2023/01/30 00:04:48;;;;;;;27.27;12.83;;;;;;;;;;4991946;28;20042;-70
2023/01/30 00:07:13;;;;;;;28.08;11.90;;;;;;;;;;4992923;28;20359;-70
2023/01/30 00:09:39;;;;;;;25.80;11.57;;;;;;;;;;4990982;28;20125;-70
2023/01/30 00:12:05;;;;;;;27.88;12.13;;;;;;;;;;4993247;28;20386;-70
2023/01/30 00:14:30;;;;;;;25.80;12.55;;;;;;;;;;4990752;28;20141;-70
2023/01/30 00:16:55;;;;;;;26.20;12.30;;;;;;;;;;4991966;28;20058;-70
2023/01/30 00:19:21;;;;;;;25.63;11.73;;;;;;;;;;4990917;28;20030;-70
2023/01/30 00:21:46;;;;;;;29.80;12.73;;;;;;;;;;4991893;28;20038;-70
2023/01/30 00:24:11;;;;;;;25.30;11.97;;;;;;;;;;4990007;28;20306;-66
2023/01/30 00:26:36;;;;;;;26.80;11.43;;;;;;;;;;4988716;28;20276;-70
2023/01/30 00:29:02;;;;;;;23.05;11.48;;;;;;;;;;4991454;28;20041;-70
2023/01/30 00:31:27;;;;;;;28.77;12.00;;;;;;;;;;4991057;28;20037;-70
2023/01/30 00:33:52;;;;;;;24.08;12.00;;;;;;;;;;5002119;28;20287;-69
2023/01/30 00:36:17;;;;;;;23.77;11.03;;;;;;;;;;4988857;28;20066;-70
2023/01/30 00:38:43;;;;;;;27.23;13.23;;;;;;;;;;5002773;28;20290;-70
2023/01/30 00:41:09;;;;;;;25.33;11.50;;;;;;;;;;4987902;28;20152;-70
2023/01/30 00:49:08;;;;;;;28.13;12.65;;;;;;;;;;4988909;28;20081;-69
2023/01/30 00:51:34;;;;;;;27.10;12.13;;;;;;;;;;4986644;28;20038;-69
2023/01/30 00:53:59;;;;;;;24.33;11.90;;;;;;;;;;4986713;28;20027;-69
2023/01/30 00:56:24;;;;;;;26.60;11.70;;;;;;;;;;4986612;28;20034;-68
2023/01/30 00:58:49;;;;;;;27.13;12.27;;;;;;;;;;4987400;28;21080;-70
2023/01/30 01:01:15;;;;;;;27.25;11.75;;;;;;;;;;5001491;28;20276;-70
2023/01/30 01:03:40;;;;;;;26.33;11.32;;;;;;;;;;4985812;28;20026;-70
2023/01/30 01:06:05;;;;;;;22.47;10.93;;;;;;;;;;4985718;28;20030;-70
2023/01/30 01:08:31;;;;;;;25.38;11.73;;;;;;;;;;4988020;28;20403;-69
2023/01/30 01:10:56;;;;;;;22.60;10.98;;;;;;;;;;4985380;28;20120;-69
2023/01/30 01:13:21;;;;;;;25.83;11.67;;;;;;;;;;4988040;28;20087;-70
2023/01/30 01:15:46;;;;;;;24.87;11.70;;;;;;;;;;4984760;28;20773;-70
2023/01/30 01:18:12;;;;;;;24.80;11.83;;;;;;;;;;4986228;28;20551;-70
2023/01/30 01:20:37;;;;;;;28.77;12.20;;;;;;;;;;4988095;28;20504;-70
2023/01/30 01:23:02;;;;;;;23.73;11.90;;;;;;;;;;4988670;28;20034;-70
2023/01/30 01:25:28;;;;;;;28.60;11.33;;;;;;;-0.67;nan;101194.59;5001017;28;20121;-70
2023/01/30 01:27:53;;;;;;;23.00;11.43;;;;;;;;;;4986713;28;20357;-70
2023/01/30 01:30:18;;;;;;;23.13;10.77;;;;;;;;;;5000408;28;20042;-69
2023/01/30 01:32:43;;;;;;;27.73;11.93;;;;;;;;;;4987211;28;20022;-70
2023/01/30 01:35:09;;;;;;;27.50;12.63;;;;;;;;;;4985274;28;20038;-69
2023/01/30 01:37:34;;;;;;;23.83;11.43;;;;;;;;;;4987704;28;20033;-72
2023/01/30 01:42:44;;;;;;;24.55;11.95;;;;;;;;;;4988438;28;20283;-72
2023/01/30 01:45:15;;;;;;;26.92;12.32;;;;;;;;;;5002958;28;20030;-71
2023/01/30 01:48:01;;;;;;;25.95;12.60;;;;;;;;;;4988380;28;20141;-72
2023/01/30 01:50:39;;;;;;;22.85;11.38;;;;;;;;;;4946537;28;20049;-72
2023/01/30 01:53:05;;;;;;;25.42;12.10;;;;;;;;;;4988012;28;20030;-72
2023/01/30 01:55:30;;;;;;;27.77;12.30;;;;;;;;;;4985446;28;20373;-72
2023/01/30 01:57:59;;;;;;;26.73;11.75;;;;;;;;;;4987737;28;20110;-71
2023/01/30 02:00:25;;;;;;;24.58;11.55;;;;;;;;;;4985156;28;20030;-71
2023/01/30 02:02:57;;;;;;;26.80;12.15;;;;;;;;;;4987693;28;20688;-72
2023/01/30 02:05:24;;;;;;;25.08;11.70;;;;;;;;;;4984523;28;20153;-71
2023/01/30 02:07:57;;;;;;;23.52;11.85;;;;;;;;;;4988226;28;20029;-70
2023/01/30 02:10:25;;;;;;;25.15;12.38;;;;;;;;;;4987152;28;20026;-71
2023/01/30 02:12:51;;;;;;;24.77;11.40;;;;;;;;;;5002904;28;20026;-70
2023/01/30 02:15:17;;;;;;;29.75;12.23;;;;;;;;;;4988789;28;20585;-71
2023/01/30 02:17:42;;;;;;;28.30;13.02;;;;;;;;;;4987081;28;20034;-67
2023/01/30 02:20:13;;;;;;;27.27;12.75;;;;;;;;;;4986976;28;20034;-67
2023/01/30 02:22:54;;;;;;;25.70;11.88;;;;;;;;;;4999299;28;20026;-68
2023/01/30 02:25:38;;;;;;;28.60;12.68;;;;;;;;;;5001866;28;20102;-67
2023/01/30 02:28:21;;;;;;;31.58;12.95;;;;;;;;;;4987574;28;20041;-68
2023/01/30 02:31:05;;;;;;;30.83;12.00;;;;;;;;;;4986474;28;20034;-67
2023/01/30 02:33:31;;;;;;;24.70;11.60;;;;;;;;;;4986392;28;20104;-68
2023/01/30 02:36:05;;;;;;;27.93;12.73;;;;;;;;;;4987653;28;20031;-67
2023/01/30 02:38:30;;;;;;;26.90;12.55;;;;;;;;;;4987681;28;20666;-68
2023/01/30 02:40:56;;;;;;;28.73;12.55;;;;;;;;;;4987601;28;20097;-66
2023/01/30 02:43:31;;;;;;;27.40;12.30;;;;;;;;;;5018537;28;20034;-68
2023/01/30 02:46:07;;;;;;;28.50;12.73;;;;;;;-0.56;nan;101110.91;4986484;28;20084;-68
2023/01/30 02:48:32;;;;;;;25.00;11.82;;;;;;;;;;4993085;28;20500;-68
2023/01/30 02:51:03;;;;;;;27.40;11.30;;;;;;;;;;4987060;28;20121;-68
2023/01/30 02:53:32;;;;;;;23.83;11.02;;;;;;;;;;4985842;28;20283;-67
2023/01/30 02:55:58;;;;;;;24.33;11.15;;;;;;;;;;4987472;28;20033;-68
2023/01/30 02:58:23;;;;;;;22.40;10.73;;;;;;;;;;4988015;28;20030;-68
2023/01/30 03:01:16;;;;;;;22.70;10.65;;;;;;;;;;4988429;28;21304;-70
2023/01/30 03:03:48;;;;;;;23.25;10.60;;;;;;;;;;5002651;28;20061;-69
2023/01/30 03:06:29;;;;;;;26.27;12.18;;;;;;;;;;5018632;28;20117;-69
2023/01/30 03:08:55;;;;;;;25.52;11.55;;;;;;;;;;5003408;28;20025;-70
2023/01/30 03:11:24;;;;;;;28.83;12.57;;;;;;;;;;4984230;28;20046;-68
2023/01/30 03:14:04;;;;;;;31.05;13.50;;;;;;;;;;5002143;28;20045;-69
2023/01/30 03:16:35;;;;;;;29.80;12.48;;;;;;;;;;4985389;28;20579;-68
2023/01/30 03:19:02;;;;;;;23.55;10.57;;;;;;;;;;4988638;28;20034;-69
2023/01/30 03:21:27;;;;;;;21.92;11.43;;;;;;;;;;4986723;28;20026;-68
2023/01/30 03:23:52;;;;;;;24.70;11.32;;;;;;;;;;4985692;28;20019;-67
2023/01/30 03:26:19;;;;;;;21.33;10.50;;;;;;;;;;4986428;28;20037;-69
2023/01/30 03:28:47;;;;;;;21.48;10.82;;;;;;;;;;4985313;28;20144;-67
2023/01/30 03:31:12;;;;;;;21.80;10.18;;;;;;;;;;4985444;28;20041;-69
2023/01/30 03:33:37;;;;;;;22.63;10.40;;;;;;;;;;5001150;28;20052;-67
2023/01/30 03:36:02;;;;;;;20.03;10.27;;;;;;;;;;4986206;28;20117;-68
2023/01/30 03:38:28;;;;;;;23.50;11.20;;;;;;;;;;4986474;28;20319;-70
2023/01/30 03:40:53;;;;;;;22.33;11.20;;;;;;;;;;4987037;28;20360;-69
2023/01/30 03:43:18;;;;;;;26.42;11.30;;;;;;;;;;4983824;28;20161;-68
2023/01/30 03:45:43;;;;;;;23.60;10.55;;;;;;;;;;4984162;28;20018;-68
2023/01/30 03:48:09;;;;;;;24.10;10.47;;;;;;;;;;4987527;28;20026;-69
2023/01/30 03:50:34;;;;;;;23.37;11.00;;;;;;;;;;5001272;28;20308;-68
2023/01/30 03:52:59;;;;;;;24.63;11.63;;;;;;;;;;5000076;28;20376;-71
2023/01/30 03:55:24;;;;;;;20.27;10.27;;;;;;;;;;4988640;28;20380;-72
2023/01/30 03:57:53;;;;;;;22.10;11.30;;;;;;;;;;4989204;28;20282;-71
2023/01/30 04:00:19;;;;;;;22.58;11.63;;;;;;;;;;4990704;28;20282;-72
2023/01/30 04:02:44;;;;;;;24.20;11.38;;;;;;;;;;5004151;28;20576;-70
2023/01/30 04:05:09;;;;;;;22.90;11.10;;;;;;;;;;4988288;28;20058;-69
2023/01/30 04:07:34;;;;;;;25.57;11.67;;;;;;;;;;4987680;28;20730;-69
2023/01/30 04:09:59;;;;;;;25.03;11.17;;;;;;;;;;4986666;28;20641;-70
2023/01/30 04:12:25;;;;;;;25.87;11.53;;;;;;;;;;4989084;28;21017;-72
2023/01/30 04:14:50;;;;;;;24.83;11.20;;;;;;;;;;4989789;28;20431;-69
2023/01/30 04:17:15;;;;;;;23.93;11.87;;;;;;;;;;4989046;28;20284;-69
2023/01/30 04:19:40;;;;;;;26.80;12.00;;;;;;;;;;4987111;28;20092;-71
2023/01/30 04:22:06;;;;;;;24.60;11.83;;;;;;;;;;4988270;28;20034;-70
2023/01/30 04:24:31;;;;;;;29.17;11.33;;;;;;;;;;4981505;28;20492;-71
2023/01/30 04:26:56;;;;;;;27.85;12.25;;;;;;;;;;4986777;28;20292;-71
2023/01/30 04:29:21;;;;;;;29.80;13.27;;;;;;;;;;4980057;28;20037;-69
2023/01/30 04:31:47;;;;;;;31.20;13.20;;;;;;;;;;4987299;28;20284;-69
2023/01/30 04:34:12;;;;;;;30.73;14.10;;;;;;;;;;4988347;28;20330;-67
2023/01/30 04:36:37;;;;;;;27.97;12.87;;;;;;;;;;4986262;28;20288;-70
2023/01/30 04:39:02;;;;;;;26.03;11.80;;;;;;;;;;4985440;28;20027;-69
2023/01/30 04:41:28;;;;;;;27.70;12.70;;;;;;;;;;5000921;28;20290;-68
2023/01/30 04:43:53;;;;;;;29.52;13.27;;;;;;;;;;4984301;28;20121;-70
2023/01/30 04:46:18;;;;;;;28.90;12.63;;;;;;;;;;4984608;28;20472;-70
2023/01/30 04:48:43;;;;;;;29.37;13.27;;;;;;;;;;4987756;28;20030;-69
2023/01/30 04:51:09;;;;;;;29.42;13.63;;;;;;;;;;5002948;28;20033;-69
2023/01/30 04:53:34;;;;;;;31.43;13.23;;;;;;;;;;4987633;28;20030;-69
2023/01/30 04:55:59;;;;;;;25.23;11.65;;;;;;;;;;4987797;28;20300;-70
2023/01/30 04:58:24;;;;;;;29.30;13.03;;;;;;;;;;4984527;28;20106;-70
2023/01/30 05:00:50;;;;;;;30.50;13.27;;;;;;;;;;4980757;28;20362;-70
2023/01/30 05:03:15;;;;;;;28.97;12.90;;;;;;;;;;4987009;28;20346;-70
2023/01/30 05:05:41;;;;;;;26.30;12.15;;;;;;;;;;4986629;28;20804;-70
2023/01/30 05:08:06;;;;;;;27.70;12.07;;;;;;;;;;4987091;28;20126;-69
2023/01/30 05:10:31;;;;;;;29.17;12.13;;;;;;;;;;4987357;28;20468;-69
2023/01/30 05:13:00;;;;;;;28.15;12.60;;;;;;;;;;4987801;28;20280;-69
2023/01/30 05:15:27;;;;;;;26.13;12.32;;;;;;;;;;4981725;28;20433;-69
2023/01/30 05:17:52;;;;;;;27.97;12.47;;;;;;;;;;5003572;28;20045;-69
2023/01/30 05:20:17;;;;;;;28.87;12.67;;;;;;;;;;4987633;28;20292;-69
2023/01/30 05:22:42;;;;;;;25.87;12.30;;;;;;;;;;4986370;28;20076;-70
2023/01/30 05:25:08;;;;;;;29.50;13.17;;;;;;;;;;4984012;28;20276;-68
2023/01/30 05:27:33;;;;;;;27.48;12.52;;;;;;;;;;4982771;28;20422;-69
2023/01/30 05:29:58;;;;;;;31.77;13.53;;;;;;;;;;4988068;28;20018;-69
2023/01/30 05:32:26;;;;;;;32.07;14.20;;;;;;;;;;4984867;28;20034;-68
2023/01/30 05:34:51;;;;;;;30.70;13.65;;;;;;;;;;4986241;28;20370;-69
2023/01/30 05:37:16;;;;;;;29.17;13.13;;;;;;;;;;4968762;28;20588;-66
2023/01/30 05:39:42;;;;;;;32.70;14.02;;;;;;;;;;4978941;28;20505;-68
2023/01/30 05:42:07;;;;;;;29.83;14.50;;;;;;;;;;5002796;28;20065;-69
2023/01/30 05:44:32;;;;;;;29.10;13.40;;;;;;;;;;4987978;28;20041;-70
2023/01/30 05:46:57;;;;;;;29.83;12.77;;;;;;;;;;4985436;28;20062;-71
2023/01/30 05:49:23;;;;;;;26.93;11.83;;;;;;;;;;4986988;28;20280;-70
2023/01/30 05:51:48;;;;;;;26.87;11.90;;;;;;;;;;5002281;28;20037;-70
2023/01/30 05:54:13;;;;;;;29.20;13.15;;;;;;;;;;4988273;28;20347;-69
2023/01/30 05:56:39;;;;;;;27.60;12.27;;;;;;;;;;4986282;28;20042;-68
2023/01/30 05:59:04;;;;;;;25.90;11.68;;;;;;;;;;4988146;28;20061;-70
2023/01/30 06:01:29;;;;;;;27.60;12.13;;;;;;;;;;4987752;28;20486;-70
2023/01/30 06:03:54;;;;;;;23.83;11.30;;;;;;;;;;4987535;28;20026;-70
2023/01/30 06:06:20;;;;;;;30.50;13.40;;;;;;;;;;4985793;28;20772;-70
2023/01/30 06:08:46;;;;;;;27.30;12.70;;;;;;;;;;4987936;28;20429;-70
2023/01/30 06:11:15;;;;;;;26.15;12.02;;;;;;;;;;4986773;28;20057;-70
2023/01/30 06:13:40;;;;;;;29.20;13.25;;;;;;;;;;4987159;28;20109;-70
2023/01/30 06:16:07;;;;;;;28.38;12.20;;;;;;;;;;4987398;28;20125;-70
2023/01/30 06:18:32;;;;;;;26.98;12.25;;;;;;;;;;4986766;28;20029;-69
2023/01/30 06:20:57;;;;;;;28.43;13.10;;;;;;;;;;5018758;28;20038;-70
2023/01/30 06:23:22;;;;;;;27.23;12.65;;;;;;;;;;4986641;28;20037;-70
2023/01/30 06:25:48;;;;;;;31.08;13.65;;;;;;;;;;4987548;28;20030;-69
2023/01/30 06:28:14;;;;;;;28.33;12.23;;;;;;;;;;4986680;28;20134;-67
2023/01/30 06:30:40;;;;;;;31.48;13.13;;;;;;;;;;5002548;28;20038;-70
2023/01/30 06:33:05;;;;;;;31.63;13.13;;;;;;;;;;4987156;28;20038;-69
2023/01/30 06:35:30;;;;;;;32.40;14.38;;;;;;;;;;5001961;28;20085;-68
2023/01/30 06:37:56;;;;;;;33.83;14.23;;;;;;;;;;4985827;28;20401;-69
2023/01/30 06:40:21;;;;;;;32.93;14.17;;;;;;;;;;4987072;28;20034;-69
2023/01/30 06:42:47;;;;;;;33.97;15.23;;;;;;;;;;4987385;28;20271;-69
2023/01/30 06:45:13;;;;;;;34.50;15.18;;;;;;;;;;4986997;28;20689;-69
2023/01/30 06:47:45;;;;;;;38.22;16.10;;;;;;;;;;4986037;28;20054;-69
2023/01/30 06:50:10;;;;;;;38.80;15.60;;;;;;;;;;4986334;28;20034;-69
2023/01/30 06:52:39;;;;;;;39.97;15.88;;;;;;;;;;5002455;28;20026;-69
2023/01/30 06:55:04;;;;;;;28.70;12.23;;;;;;;;;;4985280;28;20041;-69
2023/01/30 06:57:30;;;;;;;38.10;15.52;;;;;;;;;;4986025;28;20030;-68
2023/01/30 06:59:55;;;;;;;36.78;15.02;;;;;;;;;;4987444;28;20038;-69
2023/01/30 07:02:20;;;;;;;35.57;15.60;;;;;;;;;;4986584;28;20658;-69
2023/01/30 07:04:46;;;;;;;34.10;14.90;;;;;;;;;;4998193;28;20282;-69
2023/01/30 07:07:11;;;;;;;37.28;16.23;;;;;;;;;;5001166;28;20288;-70
2023/01/30 07:09:36;;;;;;;37.07;16.07;;;;;;;;;;4984752;28;20052;-70
2023/01/30 07:12:01;;;;;;;42.93;16.10;;;;;;;;;;4985216;28;20658;-70
2023/01/30 07:14:27;;;;;;;38.30;17.17;;;;;;;;;;5001113;28;20338;-70
2023/01/30 07:16:52;;;;;;;37.63;15.40;;;;;;;;;;4988155;28;20448;-70
2023/01/30 07:19:17;;;;;;;38.00;16.33;;;;;;;;;;4986778;28;20275;-68
2023/01/30 07:21:42;;;;;;;35.87;16.50;;;;;;;;;;4985471;28;20026;-68
2023/01/30 07:24:07;;;;;;;38.10;16.13;;;;;;;;;;4986817;28;20048;-69
2023/01/30 07:26:33;;;;;;;34.15;15.23;;;;;;;;;;4985104;28;20160;-69
2023/01/30 07:28:59;;;;;;;34.83;16.35;;;;;;;;;;4984183;28;20113;-70
2023/01/30 07:31:24;;;;;;;39.27;16.07;;;;;;;;;;4987915;28;20408;-69
2023/01/30 07:33:49;;;;;;;35.63;15.93;;;;;;;;;;4987823;28;20315;-69
2023/01/30 07:36:14;;;;;;;39.13;16.77;;;;;;;;;;4989756;28;20121;-70
2023/01/30 07:38:40;;;;;;;38.63;17.10;;;;;;;;;;4989791;28;20100;-70
2023/01/30 07:41:05;;;;;;;37.53;17.23;;;;;;;;;;4990377;28;20275;-70
2023/01/30 07:43:30;;;;;;;36.83;16.57;;;;;;;;;;4989918;28;20279;-68
2023/01/30 07:45:55;;;;;;;34.27;15.57;;;;;;;;;;4988222;28;20030;-67
2023/01/30 07:48:21;;;;;;;36.13;16.27;;;;;;;;;;4989136;28;20291;-69
2023/01/30 07:50:46;;;;;;;36.92;15.52;;;;;;;;;;4990499;28;20034;-67
2023/01/30 07:53:12;;;;;;;41.23;15.90;;;;;;;;;;4989494;28;20026;-67
2023/01/30 07:55:38;;;;;;;35.45;15.13;;;;;;;;;;4989524;28;20392;-67
2023/01/30 07:58:03;;;;;;;31.95;14.30;;;;;;;;;;4987106;28;20059;-67
2023/01/30 08:00:29;;;;;;;33.88;14.45;;;;;;;;;;4988112;28;20018;-67
2023/01/30 08:02:54;;;;;;;30.52;12.98;;;;;;;;;;4986829;28;20041;-67
2023/01/30 08:05:19;;;;;;;29.73;13.27;;;;;;;;;;5004208;28;20030;-67
2023/01/30 08:07:46;;;;;;;32.80;13.85;;;;;;;;;;4987038;28;20359;-67
2023/01/30 08:10:11;;;;;;;32.08;14.95;;;;;;;;;;4988435;28;20045;-66
2023/01/30 08:12:36;;;;;;;33.75;14.20;;;;;;;;;;4987696;28;20056;-68
2023/01/30 08:15:02;;;;;;;33.03;15.03;;;;;;;;;;4988902;28;20097;-67
2023/01/30 08:17:27;;;;;;;34.33;15.38;;;;;;;;;;4988810;28;20272;-66
2023/01/30 08:19:52;;;;;;;33.80;14.07;;;;;;;;;;4988761;28;20113;-67
2023/01/30 08:22:18;;;;;;;27.97;13.07;;;;;;;;;;4986976;28;20132;-67
2023/01/30 08:24:43;;;;;;;30.40;13.65;;;;;;;;;;4988948;28;20439;-67
2023/01/30 08:27:08;;;;;;;30.95;13.73;;;;;;;;;;4989556;28;20030;-69
2023/01/30 08:29:34;;;;;;;30.08;13.90;;;;;;;;;;4986912;28;20092;-68
2023/01/30 08:31:59;;;;;;;31.80;13.57;;;;;;;;;;4988341;28;20382;-68
2023/01/30 08:34:24;;;;;;;44.60;18.03;;;;;;;;;;4987124;28;20069;-69
2023/01/30 08:36:50;;;;;;;32.45;14.65;;;;;;;;;;4988993;28;20326;-67
2023/01/30 08:39:15;;;;;;;36.70;15.23;;;;;;;;;;4989420;28;20034;-70
2023/01/30 08:41:43;;;;;;;32.67;14.57;;;;;;;;;;4988337;28;20061;-70
2023/01/30 08:44:09;;;;;;;32.72;14.13;;;;;;;;;;4988973;28;20276;-69
2023/01/30 08:46:34;;;;;;;33.50;14.73;;;;;;;;;;4988061;28;20029;-71
2023/01/30 08:49:00;;;;;;;32.35;14.38;;;;;;;;;;4989172;28;20056;-70
2023/01/30 08:51:26;;;;;;;37.25;14.40;;;;;;;;;;4988899;28;20468;-70
2023/01/30 08:53:51;;;;;;;35.13;15.15;;;;;;;;;;4989625;28;20259;-70
2023/01/30 08:56:16;;;;;;;33.47;13.60;;;;;;;;;;4987256;28;20038;-70
2023/01/30 08:58:42;;;;;;;29.70;12.90;;;;;;;;;;5003337;28;20121;-70
2023/01/30 09:01:08;;;;;;;46.22;16.65;;;;;;;;;;5003261;28;20038;-70
2023/01/30 09:03:33;;;;;;;42.22;17.83;;;;;;;;;;4988584;28;20069;-69
2023/01/30 09:05:58;;;;;;;34.90;15.68;;;;;;;;;;4988552;28;20105;-69
2023/01/30 09:08:24;;;;;;;32.50;14.07;;;;;;;;;;4988408;28;20468;-69
2023/01/30 09:10:49;;;;;;;31.13;13.57;;;;;;;;;;4988338;28;20452;-69
2023/01/30 09:13:16;;;;;;;29.83;14.30;;;;;;;;;;4988461;28;20034;-70
2023/01/30 09:15:41;;;;;;;35.85;13.95;;;;;;;;;;4987748;28;20040;-71
2023/01/30 09:18:07;;;;;;;28.80;13.07;;;;;;;;;;4987676;28;20034;-70
2023/01/30 09:20:32;;;;;;;29.45;13.55;;;;;;;;;;4987836;28;20034;-71
2023/01/30 09:22:57;;;;;;;28.70;13.05;;;;;;;;;;4987953;28;20026;-69
2023/01/30 09:25:23;;;;;;;29.60;14.10;;;;;;;;;;5003213;28;20026;-69
2023/01/30 09:27:49;;;;;;;31.07;13.77;;;;;;;;;;5020336;28;20023;-70
2023/01/30 09:30:14;;;;;;;28.08;13.77;;;;;;;;;;4986653;28;20077;-70
2023/01/30 09:32:39;;;;;;;31.90;14.35;;;;;;;;;;4988163;28;20030;-70
2023/01/30 09:35:05;;;;;;;28.53;12.37;;;;;;;;;;4985550;28;20030;-70
2023/01/30 09:37:30;;;;;;;26.60;12.85;;;;;;;;;;4984513;28;20283;-69
2023/01/30 09:39:55;;;;;;;27.63;12.23;;;;;;;;;;4987286;28;20025;-70
2023/01/30 09:42:33;;;;;;;27.08;12.70;;;;;;;;;;5018901;28;20379;-70
2023/01/30 09:45:02;;;;;;;32.70;13.77;;;;;;;;;;5002031;28;20026;-70
2023/01/30 09:47:30;;;;;;;29.17;12.95;;;;;;;;;;4987210;28;20469;-69
2023/01/30 09:50:10;;;;;;;27.80;12.43;;;;;;;;;;4984020;28;20439;-70
2023/01/30 09:52:54;;;;;;;28.23;13.27;;;;;;;;;;4985698;28;20026;-70
2023/01/30 09:55:19;;;;;;;30.15;13.45;;;;;;;;;;4986593;28;20022;-70
2023/01/30 09:57:45;;;;;;;27.90;12.87;;;;;;;;;;4987803;28;20080;-69
2023/01/30 10:00:14;;;;;;;28.02;12.05;;;;;;;;;;4986746;28;20298;-70
2023/01/30 10:02:57;;;;;;;32.00;13.73;;;;;;;;;;4987130;28;20022;-70
2023/01/30 10:05:29;;;;;;;27.70;12.65;;;;;;;;;;4986780;28;20030;-69
2023/01/30 10:07:55;;;;;;;28.98;13.07;;;;;;;;;;4986743;28;20030;-70
2023/01/30 10:10:20;;;;;;;34.70;14.23;;;;;;;;;;4986781;28;20072;-70
2023/01/30 10:12:45;;;;;;;29.77;13.57;;;;;;;;;;4985090;28;20093;-70
2023/01/30 10:15:15;;;;;;;34.13;15.33;;;;;;;;;;4987269;28;20036;-70
2023/01/30 10:17:52;;;;;;;30.30;13.68;;;;;;;;;;4986126;28;20809;-70
2023/01/30 10:20:36;;;;;;;34.88;13.70;;;;;;;;;;4987450;28;20030;-70
2023/01/30 10:23:01;;;;;;;29.02;12.63;;;;;;;;;;4986777;28;20048;-70
2023/01/30 10:25:36;;;;;;;30.77;13.47;;;;;;;;;;4987169;28;20465;-70
2023/01/30 10:28:20;;;;;;;30.33;14.20;;;;;;;;;;5002165;28;20050;-70
2023/01/30 10:30:46;;;;;;;28.20;12.90;;;;;;;;;;5016745;28;20041;-70
2023/01/30 10:33:17;;;;;;;28.10;11.88;;;;;;;;;;4986795;28;20799;-69
2023/01/30 10:35:42;;;;;;;28.40;11.73;;;;;;;;;;4986174;28;20030;-70
2023/01/30 10:38:26;;;;;;;26.35;12.02;;;;;;;;;;4987331;28;20481;-69
2023/01/30 10:41:05;;;;;;;33.83;12.63;;;;;;;;;;4987082;28;20396;-70
2023/01/30 10:43:49;;;;;;;28.20;12.07;;;;;;;;;;4986623;28;20041;-70
2023/01/30 10:46:21;;;;;;;30.92;12.98;;;;;;;;;;4986789;28;20038;-70
2023/01/30 10:49:02;;;;;;;28.48;11.55;;;;;;;;;;5002382;28;20088;-70
2023/01/30 10:51:37;;;;;;;26.80;12.32;;;;;;;0.40;nan;100799.09;4985261;28;20960;-70
2023/01/30 10:54:24;;;;;;;29.17;12.40;;;;;;;0.47;nan;100788.97;4987408;28;20056;-71
2023/01/30 10:57:02;;;;;;;31.52;12.45;;;;;;;0.49;nan;100786.25;5001921;28;20208;-70
2023/01/30 10:59:39;;;;;;;26.00;11.43;;;;;;;0.53;nan;100793.56;5002119;28;20137;-70
2023/01/30 11:02:26;;;;;;;25.33;12.07;;;;;;;0.58;nan;100796.53;5001002;28;20097;-69
2023/01/30 11:05:26;;;;;;;26.48;11.43;;;;;;;0.62;nan;100787.50;4990288;28;20088;-69
2023/01/30 11:07:52;;;;;;;28.33;12.38;;;;;;;0.52;nan;100773.78;4972176;28;20042;-70
2023/01/30 11:10:17;;;;;;;24.65;10.88;;;;;;;0.63;nan;100781.31;4990730;28;20522;-70
2023/01/30 11:12:42;;;;;;;26.17;11.60;;;;;;;0.61;nan;100772.06;4991542;28;20026;-70
2023/01/30 11:15:09;;;;;;;25.63;11.30;;;;;;;0.59;nan;100772.22;5005524;28;20469;-71
2023/01/30 11:17:37;;;;;;;23.85;10.98;;;;;;;0.62;nan;100777.13;5004992;28;20029;-70
2023/01/30 11:20:15;;;;;;;20.67;9.97;;;;;;;0.62;nan;100758.16;4985226;28;20030;-70
2023/01/30 11:23:03;;;;;;;25.50;11.40;;;;;;;0.56;nan;100746.63;4988876;28;20279;-68
2023/01/30 11:25:28;;;;;;;25.23;11.88;;;;;;;0.57;nan;100735.28;4988955;28;20045;-70
2023/01/30 11:28:05;;;;;;;22.38;10.65;;;;;;;0.57;nan;100731.88;4990692;28;20034;-70
2023/01/30 11:30:35;;;;;;;24.10;10.45;;;;;;;0.61;nan;100728.03;4989515;28;20026;-70
2023/01/30 11:33:12;;;;;;;26.45;10.73;;;;;;;0.60;nan;100750.53;4990526;28;20057;-69
2023/01/30 11:35:59;;;;;;;21.85;9.98;;;;;;;0.62;nan;100745.19;4989497;28;20029;-70
2023/01/30 11:38:30;;;;;;;23.52;10.18;;;;;;;0.64;nan;100735.47;4989626;28;20601;-70
2023/01/30 11:41:17;;;;;;;22.42;10.02;;;;;;;0.67;nan;100718.81;4989617;28;20030;-70
2023/01/30 11:43:42;;;;;;;20.55;9.27;;;;;;;0.69;nan;100711.72;4988882;28;20044;-70
2023/01/30 11:46:12;;;;;;;20.15;9.38;;;;;;;0.76;nan;100715.31;4988577;28;20030;-70
2023/01/30 11:48:48;;;;;;;22.65;10.82;;;;;;;0.71;nan;100696.81;4989360;28;20032;-69
2023/01/30 11:51:15;;;;;;;20.95;10.13;;;;;;;0.82;nan;100707.75;4989849;28;20026;-70
2023/01/30 11:53:45;;;;;;;27.98;11.60;;;;;;;0.89;nan;100699.34;5004872;28;20026;-69
2023/01/30 11:56:30;;;;;;;30.05;10.82;;;;;;;0.93;nan;100709.25;4989002;28;20523;-69
2023/01/30 11:58:58;;;;;;;25.33;10.70;;;;;;;0.89;nan;100707.94;4989669;28;20056;-70
2023/01/30 12:01:35;;;;;;;19.10;8.83;;;;;;;0.96;nan;100706.38;4988307;28;20026;-69
2023/01/30 12:04:07;;;;;;;19.52;8.13;;;;;;;0.95;nan;100691.75;4989325;28;20028;-70
2023/01/30 12:06:39;;;;;;;22.02;9.63;;;;;;;0.94;nan;100674.59;4989712;28;20022;-70
2023/01/30 12:09:05;;;;;;;20.50;8.70;;;;;;;0.90;nan;100678.47;4989469;28;20034;-70
2023/01/30 12:11:40;;;;;;;21.45;10.15;;;;;;;0.96;nan;100675.25;4989646;28;20447;-70
2023/01/30 12:14:35;;;;;;;18.30;9.52;;;;;;;0.97;nan;100671.69;4989935;28;20121;-70
2023/01/30 12:17:21;;;;;;;22.90;10.10;;;;;;;0.98;nan;100660.34;5007474;28;20030;-70
2023/01/30 12:19:58;;;;;;;20.85;9.63;;;;;;;0.87;nan;100639.06;4989070;28;20022;-70
2023/01/30 12:22:40;;;;;;;20.75;9.38;;;;;;;1.00;nan;100650.63;4988940;28;20084;-70
2023/01/30 12:25:27;;;;;;;21.83;10.40;;;;;;;1.06;nan;100655.19;4989288;28;20113;-70
2023/01/30 12:28:24;;;;;;;22.58;9.23;;;;;;;0.96;nan;100622.56;4988631;28;20538;-70
2023/01/30 12:31:03;;;;;;;21.00;8.70;;;;;;;0.77;nan;100582.19;4989100;28;20034;-70
2023/01/30 12:33:31;;;;;;;20.50;8.52;;;;;;;1.07;nan;100617.09;4989405;28;20065;-69
2023/01/30 12:36:03;;;;;;;19.55;9.80;;;;;;;1.17;nan;100617.78;5020050;28;20037;-69
2023/01/30 12:38:34;;;;;;;18.10;8.73;;;;;;;1.25;nan;100617.81;4989208;28;20086;-70
2023/01/30 12:41:24;;;;;;;18.60;9.23;;;;;;;1.29;nan;100615.69;4988854;28;20039;-70
2023/01/30 12:43:49;;;;;;;18.73;8.30;;;;;;;;;;4987436;28;20026;-70
2023/01/30 12:46:29;;;;;;;19.43;10.80;;;;;;;;;;4988293;28;20121;-70
2023/01/30 12:48:54;;;;;;;17.95;8.43;;;;;;;;;;5003448;28;20026;-70
2023/01/30 12:51:27;;;;;;;23.57;11.17;;;;;;;;;;4988613;28;20030;-69
2023/01/30 12:53:57;;;;;;;26.33;12.23;;;;;;;;;;4988512;28;20919;-70
2023/01/30 12:56:39;;;;;;;20.27;9.40;;;;;;;;;;5003714;28;20050;-69
2023/01/30 12:59:10;;;;;;;18.67;8.93;;;;;;;;;;4988791;28;20045;-70
2023/01/30 13:01:54;;;;;;;20.90;10.68;;;;;;;;;;4986294;28;20038;-70
2023/01/30 13:04:29;;;;;;;18.83;9.40;;;;;;;;;;4989007;28;20026;-70
2023/01/30 13:06:59;;;;;;;16.05;7.57;;;;;;;;;;4987473;28;20037;-69
2023/01/30 13:09:48;;;;;;;15.50;8.75;;;;;;;;;;4987145;28;20065;-69
2023/01/30 13:12:29;;;;;;;11.45;6.05;;;;;;;;;;4980384;28;20058;-70
2023/01/30 13:15:03;;;;;;;17.17;8.20;;;;;;;;;;4980410;28;20065;-70
2023/01/30 13:17:37;;;;;;;15.80;7.60;;;;;;;;;;4980350;28;20117;-69
2023/01/30 13:20:12;;;;;;;16.30;8.27;;;;;;;;;;4979778;28;20464;-70
2023/01/30 13:22:37;;;;;;;18.08;8.25;;;;;;;;;;4980926;28;20046;-70
2023/01/30 13:25:05;;;;;;;18.43;8.70;;;;;;;;;;4981053;28;20084;-70
2023/01/30 13:27:34;;;;;;;20.25;9.05;;;;;;;;;;4967385;28;20030;-69
2023/01/30 13:30:00;;;;;;;18.40;8.85;;;;;;;;;;4962585;28;20034;-69
2023/01/30 13:32:32;;;;;;;14.98;8.02;;;;;;;;;;4979402;28;20561;-69
2023/01/30 13:34:58;;;;;;;17.65;8.63;;;;;;;;;;4977771;28;20031;-70
2023/01/30 13:37:23;;;;;;;17.67;7.82;;;;;;;;;;4979309;28;20077;-70
2023/01/30 13:39:57;;;;;;;16.08;8.35;;;;;;;;;;4978615;28;20058;-70
2023/01/30 13:42:34;;;;;;;17.60;9.18;;;;;;;;;;4982141;28;20085;-69
2023/01/30 13:45:00;;;;;;;16.75;8.52;;;;;;;;;;4979066;28;20038;-70
2023/01/30 13:47:28;;;;;;;17.63;8.60;;;;;;;;;;4981083;28;20042;-69
2023/01/30 13:49:53;;;;;;;19.90;9.15;;;;;;;;;;4984287;28;20742;-68
2023/01/30 13:52:39;;;;;;;18.10;8.77;;;;;;;;;;4985798;28;20030;-68
2023/01/30 13:55:11;;;;;;;18.83;8.55;;;;;;;;;;4984739;28;20379;-69
2023/01/30 13:57:36;;;;;;;16.60;8.27;;;;;;;;;;4984208;28;20026;-70
2023/01/30 14:00:15;;;;;;;18.37;8.33;;;;;;;;;;4985956;28;20524;-71
2023/01/30 14:02:59;;;;;;;17.85;9.18;;;;;;;;;;5002132;28;20480;-69
2023/01/30 14:05:44;;;;;;;16.52;8.18;;;;;;;;;;4986630;28;20057;-69
2023/01/30 14:08:11;;;;;;;15.93;8.43;;;;;;;;;;4985903;28;20061;-68
2023/01/30 14:10:36;;;;;;;18.05;8.85;;;;;;;;;;4983150;28;20556;-67